Terminal Aerodrome Forecast
Issued by NWS

Home | Current Version | Previous Version | Text Only | Print | Product List | Glossary On
Versions: 1 2 3 4 5 6 7 8 9 10 11 12 13 14 15 16 17 18 19 20 21 22 23 24 25
000
FTUS43 KILX 012014 AAA
TAFDEC
TAF AMD
KDEC 012014Z 0120/0218 VRB05KT P6SM BKN015
     FM012200 23005KT P6SM VCTS SCT015CB BKN025
     FM020500 34007KT 5SM BR BKN008
     FM021500 05008KT P6SM BKN025=

USA.gov is the U.S. government's official web portal to all federal, state and local government web resources and services.